sensor_id;sensor_type;location;lat;lon;timestamp;temperature;humidity
439;DHT22;206;48.782;9.252;2023-09-08T00:01:52;20.10;46.60
439;DHT22;206;48.782;9.252;2023-09-08T00:04:18;20.10;46.60
439;DHT22;206;48.782;9.252;2023-09-08T00:06:45;20.10;46.60
439;DHT22;206;48.782;9.252;2023-09-08T00:09:11;20.10;46.50
439;DHT22;206;48.782;9.252;2023-09-08T00:11:36;20.10;46.70
439;DHT22;206;48.782;9.252;2023-09-08T00:14:02;20.20;46.90
439;DHT22;206;48.782;9.252;2023-09-08T00:16:29;20.20;46.60
439;DHT22;206;48.782;9.252;2023-09-08T00:18:55;20.20;46.50
439;DHT22;206;48.782;9.252;2023-09-08T00:21:20;20.30;46.40
439;DHT22;206;48.782;9.252;2023-09-08T00:23:46;20.30;46.10
439;DHT22;206;48.782;9.252;2023-09-08T00:26:11;20.30;46.40
439;DHT22;206;48.782;9.252;2023-09-08T00:28:37;20.30;46.60
439;DHT22;206;48.782;9.252;2023-09-08T00:31:02;20.30;46.50
439;DHT22;206;48.782;9.252;2023-09-08T00:33:28;20.20;47.10
439;DHT22;206;48.782;9.252;2023-09-08T00:35:53;20.20;46.50
439;DHT22;206;48.782;9.252;2023-09-08T00:38:22;20.20;46.40
439;DHT22;206;48.782;9.252;2023-09-08T00:40:48;20.20;46.30
439;DHT22;206;48.782;9.252;2023-09-08T00:43:13;20.10;46.30
439;DHT22;206;48.782;9.252;2023-09-08T00:45:42;20.10;46.60
439;DHT22;206;48.782;9.252;2023-09-08T00:48:08;20.10;46.40
439;DHT22;206;48.782;9.252;2023-09-08T00:50:35;20.10;46.50
439;DHT22;206;48.782;9.252;2023-09-08T00:53:01;20.00;46.40
439;DHT22;206;48.782;9.252;2023-09-08T00:55:27;20.00;46.60
439;DHT22;206;48.782;9.252;2023-09-08T00:57:53;20.00;46.60
439;DHT22;206;48.782;9.252;2023-09-08T01:00:18;19.90;47.20
439;DHT22;206;48.782;9.252;2023-09-08T01:02:45;19.80;47.70
439;DHT22;206;48.782;9.252;2023-09-08T01:05:11;19.80;48.10
439;DHT22;206;48.782;9.252;2023-09-08T01:07:36;19.70;48.30
439;DHT22;206;48.782;9.252;2023-09-08T01:10:02;19.70;48.50
439;DHT22;206;48.782;9.252;2023-09-08T01:12:31;19.60;49.00
439;DHT22;206;48.782;9.252;2023-09-08T01:14:57;19.50;49.40
439;DHT22;206;48.782;9.252;2023-09-08T01:17:22;19.50;49.50
439;DHT22;206;48.782;9.252;2023-09-08T01:19:49;19.40;49.70
439;DHT22;206;48.782;9.252;2023-09-08T01:22:40;19.40;49.70
439;DHT22;206;48.782;9.252;2023-09-08T01:25:18;19.30;49.80
439;DHT22;206;48.782;9.252;2023-09-08T01:27:53;19.30;50.10
439;DHT22;206;48.782;9.252;2023-09-08T01:30:21;19.20;50.40
439;DHT22;206;48.782;9.252;2023-09-08T01:32:47;19.20;51.00
439;DHT22;206;48.782;9.252;2023-09-08T01:35:13;19.10;51.20
439;DHT22;206;48.782;9.252;2023-09-08T01:37:46;19.00;51.00
439;DHT22;206;48.782;9.252;2023-09-08T01:40:12;19.00;51.20
439;DHT22;206;48.782;9.252;2023-09-08T01:42:39;19.00;51.60
439;DHT22;206;48.782;9.252;2023-09-08T01:45:05;18.90;51.60
439;DHT22;206;48.782;9.252;2023-09-08T01:47:31;18.90;51.60
439;DHT22;206;48.782;9.252;2023-09-08T01:49:57;18.90;52.10
439;DHT22;206;48.782;9.252;2023-09-08T01:52:23;18.90;52.20
439;DHT22;206;48.782;9.252;2023-09-08T01:54:49;18.90;52.00
439;DHT22;206;48.782;9.252;2023-09-08T01:57:14;18.90;51.90
439;DHT22;206;48.782;9.252;2023-09-08T01:59:40;19.10;51.80
439;DHT22;206;48.782;9.252;2023-09-08T02:02:05;19.10;51.80
439;DHT22;206;48.782;9.252;2023-09-08T02:04:32;19.10;50.90
439;DHT22;206;48.782;9.252;2023-09-08T02:06:57;19.20;51.00
439;DHT22;206;48.782;9.252;2023-09-08T02:09:33;19.10;50.90
439;DHT22;206;48.782;9.252;2023-09-08T02:12:00;19.10;51.30
439;DHT22;206;48.782;9.252;2023-09-08T02:14:25;19.00;50.70
439;DHT22;206;48.782;9.252;2023-09-08T02:16:56;19.00;51.00
439;DHT22;206;48.782;9.252;2023-09-08T02:19:21;18.90;51.20
439;DHT22;206;48.782;9.252;2023-09-08T02:21:47;18.90;51.20
439;DHT22;206;48.782;9.252;2023-09-08T02:24:13;18.90;51.40
439;DHT22;206;48.782;9.252;2023-09-08T02:26:39;18.80;51.60
439;DHT22;206;48.782;9.252;2023-09-08T02:29:05;18.80;51.80
439;DHT22;206;48.782;9.252;2023-09-08T02:31:30;18.70;52.90
439;DHT22;206;48.782;9.252;2023-09-08T02:33:56;18.60;53.40
439;DHT22;206;48.782;9.252;2023-09-08T02:36:22;18.60;53.50
439;DHT22;206;48.782;9.252;2023-09-08T02:38:57;18.60;53.80
439;DHT22;206;48.782;9.252;2023-09-08T02:41:23;18.60;53.60
439;DHT22;206;48.782;9.252;2023-09-08T02:43:49;18.60;53.10
439;DHT22;206;48.782;9.252;2023-09-08T02:46:15;18.70;52.90
439;DHT22;206;48.782;9.252;2023-09-08T02:48:41;18.70;52.00
439;DHT22;206;48.782;9.252;2023-09-08T02:51:06;18.70;51.50
439;DHT22;206;48.782;9.252;2023-09-08T02:53:32;18.60;52.30
439;DHT22;206;48.782;9.252;2023-09-08T02:55:58;18.50;52.30
439;DHT22;206;48.782;9.252;2023-09-08T02:58:25;18.50;53.20
439;DHT22;206;48.782;9.252;2023-09-08T03:00:51;18.50;53.10
439;DHT22;206;48.782;9.252;2023-09-08T03:03:20;18.40;53.40
439;DHT22;206;48.782;9.252;2023-09-08T03:05:46;18.40;54.00
439;DHT22;206;48.782;9.252;2023-09-08T03:08:11;18.40;53.90
439;DHT22;206;48.782;9.252;2023-09-08T03:10:37;18.50;54.00
439;DHT22;206;48.782;9.252;2023-09-08T03:13:03;18.40;54.40
439;DHT22;206;48.782;9.252;2023-09-08T03:15:29;18.40;53.90
439;DHT22;206;48.782;9.252;2023-09-08T03:17:55;18.40;54.10
439;DHT22;206;48.782;9.252;2023-09-08T03:20:21;18.30;54.60
439;DHT22;206;48.782;9.252;2023-09-08T03:22:47;18.30;55.30
439;DHT22;206;48.782;9.252;2023-09-08T03:25:15;18.20;55.70
439;DHT22;206;48.782;9.252;2023-09-08T03:27:41;18.20;55.50
439;DHT22;206;48.782;9.252;2023-09-08T03:30:07;18.10;55.70
439;DHT22;206;48.782;9.252;2023-09-08T03:32:33;18.10;55.80
439;DHT22;206;48.782;9.252;2023-09-08T03:34:58;18.10;56.60
439;DHT22;206;48.782;9.252;2023-09-08T03:37:24;18.00;56.90
439;DHT22;206;48.782;9.252;2023-09-08T03:39:51;18.00;57.00
439;DHT22;206;48.782;9.252;2023-09-08T03:42:17;17.90;57.40
439;DHT22;206;48.782;9.252;2023-09-08T03:44:43;18.00;57.20
439;DHT22;206;48.782;9.252;2023-09-08T03:47:08;18.00;57.00
439;DHT22;206;48.782;9.252;2023-09-08T03:49:34;18.10;56.60
439;DHT22;206;48.782;9.252;2023-09-08T03:51:59;18.10;56.20
439;DHT22;206;48.782;9.252;2023-09-08T03:54:25;18.20;55.90
439;DHT22;206;48.782;9.252;2023-09-08T03:56:50;18.20;55.30
439;DHT22;206;48.782;9.252;2023-09-08T03:59:16;18.20;54.90
439;DHT22;206;48.782;9.252;2023-09-08T04:01:41;18.30;54.90
439;DHT22;206;48.782;9.252;2023-09-08T04:04:07;18.20;54.90
439;DHT22;206;48.782;9.252;2023-09-08T04:06:33;18.20;55.10
439;DHT22;206;48.782;9.252;2023-09-08T04:08:59;18.20;55.20
439;DHT22;206;48.782;9.252;2023-09-08T04:11:25;18.20;55.00
439;DHT22;206;48.782;9.252;2023-09-08T04:13:51;18.20;55.20
439;DHT22;206;48.782;9.252;2023-09-08T04:16:17;18.20;55.10
439;DHT22;206;48.782;9.252;2023-09-08T04:18:43;18.20;55.30
439;DHT22;206;48.782;9.252;2023-09-08T04:21:08;18.20;55.40
439;DHT22;206;48.782;9.252;2023-09-08T04:23:34;18.10;55.80
439;DHT22;206;48.782;9.252;2023-09-08T04:25:59;18.00;55.70
439;DHT22;206;48.782;9.252;2023-09-08T04:28:25;17.90;56.30
439;DHT22;206;48.782;9.252;2023-09-08T04:30:51;17.90;57.00
439;DHT22;206;48.782;9.252;2023-09-08T04:33:16;17.90;56.60
439;DHT22;206;48.782;9.252;2023-09-08T04:35:42;17.80;57.00
439;DHT22;206;48.782;9.252;2023-09-08T04:38:08;17.80;57.20
439;DHT22;206;48.782;9.252;2023-09-08T04:40:34;17.80;57.20
439;DHT22;206;48.782;9.252;2023-09-08T04:43:00;17.80;57.00
439;DHT22;206;48.782;9.252;2023-09-08T04:45:25;17.80;56.80
439;DHT22;206;48.782;9.252;2023-09-08T04:47:51;17.90;56.40
439;DHT22;206;48.782;9.252;2023-09-08T04:50:16;17.90;55.80
439;DHT22;206;48.782;9.252;2023-09-08T04:52:42;17.90;55.60
439;DHT22;206;48.782;9.252;2023-09-08T04:55:08;17.80;55.60
439;DHT22;206;48.782;9.252;2023-09-08T04:57:33;17.80;56.10
439;DHT22;206;48.782;9.252;2023-09-08T04:59:59;17.70;56.30
439;DHT22;206;48.782;9.252;2023-09-08T05:02:24;17.70;56.50
439;DHT22;206;48.782;9.252;2023-09-08T05:04:50;17.70;56.70
439;DHT22;206;48.782;9.252;2023-09-08T05:07:16;17.70;56.40
439;DHT22;206;48.782;9.252;2023-09-08T05:09:43;17.60;56.20
439;DHT22;206;48.782;9.252;2023-09-08T05:12:09;17.60;56.60
439;DHT22;206;48.782;9.252;2023-09-08T05:14:34;17.60;56.90
439;DHT22;206;48.782;9.252;2023-09-08T05:17:00;17.60;56.90
439;DHT22;206;48.782;9.252;2023-09-08T05:19:25;17.60;56.80
439;DHT22;206;48.782;9.252;2023-09-08T05:21:52;17.60;56.50
439;DHT22;206;48.782;9.252;2023-09-08T05:24:18;17.60;57.00
439;DHT22;206;48.782;9.252;2023-09-08T05:26:46;17.60;56.70
439;DHT22;206;48.782;9.252;2023-09-08T05:29:12;17.60;56.80
439;DHT22;206;48.782;9.252;2023-09-08T05:31:37;17.60;56.60
439;DHT22;206;48.782;9.252;2023-09-08T05:34:03;17.60;56.50
439;DHT22;206;48.782;9.252;2023-09-08T05:36:28;17.60;56.80
439;DHT22;206;48.782;9.252;2023-09-08T05:38:55;17.50;56.60
439;DHT22;206;48.782;9.252;2023-09-08T05:41:21;17.50;56.90
439;DHT22;206;48.782;9.252;2023-09-08T05:43:46;17.50;57.20
439;DHT22;206;48.782;9.252;2023-09-08T05:46:12;17.50;57.40
439;DHT22;206;48.782;9.252;2023-09-08T05:48:38;17.60;56.70
439;DHT22;206;48.782;9.252;2023-09-08T05:51:04;17.70;56.30
439;DHT22;206;48.782;9.252;2023-09-08T05:53:31;17.70;56.40
439;DHT22;206;48.782;9.252;2023-09-08T05:55:56;17.70;56.60
439;DHT22;206;48.782;9.252;2023-09-08T05:58:22;17.70;56.50
439;DHT22;206;48.782;9.252;2023-09-08T06:00:49;17.70;56.50
439;DHT22;206;48.782;9.252;2023-09-08T06:03:15;17.70;56.80
439;DHT22;206;48.782;9.252;2023-09-08T06:05:40;17.80;56.40
439;DHT22;206;48.782;9.252;2023-09-08T06:08:06;17.80;56.20
439;DHT22;206;48.782;9.252;2023-09-08T06:10:32;17.80;56.30
439;DHT22;206;48.782;9.252;2023-09-08T06:12:57;17.90;56.60
439;DHT22;206;48.782;9.252;2023-09-08T06:15:23;18.00;56.10
439;DHT22;206;48.782;9.252;2023-09-08T06:17:48;18.00;56.20
439;DHT22;206;48.782;9.252;2023-09-08T06:20:14;18.10;55.80
439;DHT22;206;48.782;9.252;2023-09-08T06:22:41;18.20;56.20
439;DHT22;206;48.782;9.252;2023-09-08T06:25:07;18.20;56.50
439;DHT22;206;48.782;9.252;2023-09-08T06:27:33;18.20;55.80
439;DHT22;206;48.782;9.252;2023-09-08T06:29:58;18.30;55.90
439;DHT22;206;48.782;9.252;2023-09-08T06:32:24;18.40;56.00
439;DHT22;206;48.782;9.252;2023-09-08T06:34:49;18.50;55.70
439;DHT22;206;48.782;9.252;2023-09-08T06:37:15;18.60;55.40
439;DHT22;206;48.782;9.252;2023-09-08T06:39:40;18.80;54.30
439;DHT22;206;48.782;9.252;2023-09-08T06:42:06;19.10;53.30
439;DHT22;206;48.782;9.252;2023-09-08T06:44:32;19.40;51.20
439;DHT22;206;48.782;9.252;2023-09-08T06:46:57;19.80;49.20
439;DHT22;206;48.782;9.252;2023-09-08T06:49:23;20.10;47.80
439;DHT22;206;48.782;9.252;2023-09-08T06:51:48;20.40;46.30
439;DHT22;206;48.782;9.252;2023-09-08T06:54:14;20.70;44.80
439;DHT22;206;48.782;9.252;2023-09-08T06:56:40;21.10;43.60
439;DHT22;206;48.782;9.252;2023-09-08T06:59:05;21.40;41.60
439;DHT22;206;48.782;9.252;2023-09-08T07:01:31;21.60;40.30
439;DHT22;206;48.782;9.252;2023-09-08T07:03:56;21.90;39.10
439;DHT22;206;48.782;9.252;2023-09-08T07:06:22;22.10;38.40
439;DHT22;206;48.782;9.252;2023-09-08T07:08:48;22.30;37.30
439;DHT22;206;48.782;9.252;2023-09-08T07:11:17;22.50;36.60
439;DHT22;206;48.782;9.252;2023-09-08T07:13:42;22.70;35.20
439;DHT22;206;48.782;9.252;2023-09-08T07:16:08;22.90;35.00
439;DHT22;206;48.782;9.252;2023-09-08T07:18:34;23.10;34.60
439;DHT22;206;48.782;9.252;2023-09-08T07:21:02;23.20;33.80
439;DHT22;206;48.782;9.252;2023-09-08T07:23:27;23.40;33.20
439;DHT22;206;48.782;9.252;2023-09-08T07:25:53;23.60;32.30
439;DHT22;206;48.782;9.252;2023-09-08T07:28:19;24.30;30.80
439;DHT22;206;48.782;9.252;2023-09-08T07:30:44;24.80;28.90
439;DHT22;206;48.782;9.252;2023-09-08T07:33:10;24.90;28.40
439;DHT22;206;48.782;9.252;2023-09-08T07:35:39;24.90;28.40
439;DHT22;206;48.782;9.252;2023-09-08T07:38:06;24.90;28.10
439;DHT22;206;48.782;9.252;2023-09-08T07:40:33;25.00;28.20
439;DHT22;206;48.782;9.252;2023-09-08T07:42:59;25.00;28.00
439;DHT22;206;48.782;9.252;2023-09-08T07:45:24;25.00;27.80
439;DHT22;206;48.782;9.252;2023-09-08T07:47:51;25.00;28.10
439;DHT22;206;48.782;9.252;2023-09-08T07:50:28;25.00;28.00
439;DHT22;206;48.782;9.252;2023-09-08T07:52:55;25.10;27.90
439;DHT22;206;48.782;9.252;2023-09-08T07:55:21;25.20;27.90
439;DHT22;206;48.782;9.252;2023-09-08T07:57:55;25.30;27.40
439;DHT22;206;48.782;9.252;2023-09-08T08:00:22;25.30;27.40
439;DHT22;206;48.782;9.252;2023-09-08T08:02:49;25.50;27.50
439;DHT22;206;48.782;9.252;2023-09-08T08:05:16;25.60;27.60
439;DHT22;206;48.782;9.252;2023-09-08T08:07:43;25.70;27.40
439;DHT22;206;48.782;9.252;2023-09-08T08:10:09;25.80;27.60
439;DHT22;206;48.782;9.252;2023-09-08T08:12:36;25.90;27.70
439;DHT22;206;48.782;9.252;2023-09-08T08:15:02;25.90;26.90
439;DHT22;206;48.782;9.252;2023-09-08T08:17:27;26.00;26.60
439;DHT22;206;48.782;9.252;2023-09-08T08:19:55;26.10;26.40
439;DHT22;206;48.782;9.252;2023-09-08T08:22:21;26.30;26.20
439;DHT22;206;48.782;9.252;2023-09-08T08:24:47;26.30;26.10
439;DHT22;206;48.782;9.252;2023-09-08T08:27:12;26.30;26.10
439;DHT22;206;48.782;9.252;2023-09-08T08:29:39;26.40;26.10
439;DHT22;206;48.782;9.252;2023-09-08T08:34:35;26.50;25.00
439;DHT22;206;48.782;9.252;2023-09-08T08:37:00;26.70;24.50
439;DHT22;206;48.782;9.252;2023-09-08T08:39:26;26.70;24.50
439;DHT22;206;48.782;9.252;2023-09-08T08:41:51;26.70;24.40
439;DHT22;206;48.782;9.252;2023-09-08T08:44:17;26.70;24.10
439;DHT22;206;48.782;9.252;2023-09-08T08:46:45;26.70;24.40
439;DHT22;206;48.782;9.252;2023-09-08T08:49:15;26.70;24.10
439;DHT22;206;48.782;9.252;2023-09-08T08:51:45;26.70;24.10
439;DHT22;206;48.782;9.252;2023-09-08T08:54:13;26.70;23.50
439;DHT22;206;48.782;9.252;2023-09-08T08:56:41;26.70;22.70
439;DHT22;206;48.782;9.252;2023-09-08T08:59:08;26.70;22.30
439;DHT22;206;48.782;9.252;2023-09-08T09:01:35;26.80;23.10
439;DHT22;206;48.782;9.252;2023-09-08T09:04:01;26.90;22.80
439;DHT22;206;48.782;9.252;2023-09-08T09:06:30;27.00;22.40
439;DHT22;206;48.782;9.252;2023-09-08T09:08:56;27.00;22.80
439;DHT22;206;48.782;9.252;2023-09-08T09:11:21;27.00;22.10
439;DHT22;206;48.782;9.252;2023-09-08T09:13:47;27.00;22.20
439;DHT22;206;48.782;9.252;2023-09-08T09:16:12;27.10;22.10
439;DHT22;206;48.782;9.252;2023-09-08T09:18:54;27.00;22.00
439;DHT22;206;48.782;9.252;2023-09-08T09:21:21;27.10;22.00
439;DHT22;206;48.782;9.252;2023-09-08T09:23:47;27.10;21.90
439;DHT22;206;48.782;9.252;2023-09-08T09:26:23;27.20;21.90
439;DHT22;206;48.782;9.252;2023-09-08T09:28:49;27.10;21.60
439;DHT22;206;48.782;9.252;2023-09-08T09:31:17;27.20;21.60
439;DHT22;206;48.782;9.252;2023-09-08T09:33:44;27.20;21.80
439;DHT22;206;48.782;9.252;2023-09-08T09:36:09;27.20;21.40
439;DHT22;206;48.782;9.252;2023-09-08T09:38:35;27.30;21.20
439;DHT22;206;48.782;9.252;2023-09-08T09:41:00;27.40;21.30
439;DHT22;206;48.782;9.252;2023-09-08T09:43:28;27.40;20.80
439;DHT22;206;48.782;9.252;2023-09-08T09:45:54;27.40;21.30
439;DHT22;206;48.782;9.252;2023-09-08T09:48:21;27.40;21.00
439;DHT22;206;48.782;9.252;2023-09-08T09:50:48;27.40;21.20
439;DHT22;206;48.782;9.252;2023-09-08T09:53:16;27.50;21.00
439;DHT22;206;48.782;9.252;2023-09-08T09:55:43;27.60;20.90
439;DHT22;206;48.782;9.252;2023-09-08T09:58:09;27.60;20.40
439;DHT22;206;48.782;9.252;2023-09-08T10:00:40;27.60;20.80
439;DHT22;206;48.782;9.252;2023-09-08T10:03:13;27.60;20.20
439;DHT22;206;48.782;9.252;2023-09-08T10:05:39;27.70;20.70
439;DHT22;206;48.782;9.252;2023-09-08T10:08:05;27.70;20.40
439;DHT22;206;48.782;9.252;2023-09-08T10:10:32;27.70;20.50
439;DHT22;206;48.782;9.252;2023-09-08T10:13:02;27.80;20.90
439;DHT22;206;48.782;9.252;2023-09-08T10:15:30;27.90;20.40
439;DHT22;206;48.782;9.252;2023-09-08T10:17:57;27.90;20.30
439;DHT22;206;48.782;9.252;2023-09-08T10:20:24;28.00;20.40
439;DHT22;206;48.782;9.252;2023-09-08T10:22:56;28.00;20.40
439;DHT22;206;48.782;9.252;2023-09-08T10:25:25;28.00;20.40
439;DHT22;206;48.782;9.252;2023-09-08T10:27:53;27.90;20.30
439;DHT22;206;48.782;9.252;2023-09-08T10:30:20;28.00;20.40
439;DHT22;206;48.782;9.252;2023-09-08T10:32:47;28.00;20.40
439;DHT22;206;48.782;9.252;2023-09-08T10:35:15;28.10;20.40
439;DHT22;206;48.782;9.252;2023-09-08T10:37:43;28.20;20.50
439;DHT22;206;48.782;9.252;2023-09-08T10:40:34;28.20;19.70
439;DHT22;206;48.782;9.252;2023-09-08T10:43:08;28.20;20.00
439;DHT22;206;48.782;9.252;2023-09-08T10:45:33;28.20;20.00
439;DHT22;206;48.782;9.252;2023-09-08T10:47:59;28.30;19.90
439;DHT22;206;48.782;9.252;2023-09-08T10:50:33;28.40;20.20
439;DHT22;206;48.782;9.252;2023-09-08T10:53:15;28.40;20.20
439;DHT22;206;48.782;9.252;2023-09-08T10:55:42;28.50;19.30
439;DHT22;206;48.782;9.252;2023-09-08T10:58:29;28.50;19.30
439;DHT22;206;48.782;9.252;2023-09-08T11:00:59;28.50;18.60
439;DHT22;206;48.782;9.252;2023-09-08T11:06:08;28.50;19.10
439;DHT22;206;48.782;9.252;2023-09-08T11:08:37;28.60;18.80
439;DHT22;206;48.782;9.252;2023-09-08T11:11:03;28.60;18.70
439;DHT22;206;48.782;9.252;2023-09-08T11:13:28;28.70;18.90
439;DHT22;206;48.782;9.252;2023-09-08T11:15:55;28.80;18.20
439;DHT22;206;48.782;9.252;2023-09-08T11:18:31;28.80;17.90
439;DHT22;206;48.782;9.252;2023-09-08T11:20:57;28.90;17.90
439;DHT22;206;48.782;9.252;2023-09-08T11:23:24;28.90;18.30
439;DHT22;206;48.782;9.252;2023-09-08T11:25:50;28.90;18.90
439;DHT22;206;48.782;9.252;2023-09-08T11:28:17;28.90;19.00
439;DHT22;206;48.782;9.252;2023-09-08T11:30:46;28.90;19.20
439;DHT22;206;48.782;9.252;2023-09-08T11:33:15;29.00;18.80
439;DHT22;206;48.782;9.252;2023-09-08T11:35:42;29.00;19.00
439;DHT22;206;48.782;9.252;2023-09-08T11:38:10;29.00;18.90
439;DHT22;206;48.782;9.252;2023-09-08T11:40:36;29.00;19.00
439;DHT22;206;48.782;9.252;2023-09-08T11:43:03;29.10;18.80
439;DHT22;206;48.782;9.252;2023-09-08T11:45:30;29.20;19.20
439;DHT22;206;48.782;9.252;2023-09-08T11:47:56;29.20;18.50
439;DHT22;206;48.782;9.252;2023-09-08T11:50:23;29.30;18.60
439;DHT22;206;48.782;9.252;2023-09-08T11:52:50;29.30;18.80
439;DHT22;206;48.782;9.252;2023-09-08T11:55:17;29.50;18.40
439;DHT22;206;48.782;9.252;2023-09-08T11:57:46;29.50;18.00
439;DHT22;206;48.782;9.252;2023-09-08T12:00:12;29.50;17.30
439;DHT22;206;48.782;9.252;2023-09-08T12:02:44;29.60;17.30
439;DHT22;206;48.782;9.252;2023-09-08T12:05:36;29.50;17.40
439;DHT22;206;48.782;9.252;2023-09-08T12:08:04;29.60;17.40
439;DHT22;206;48.782;9.252;2023-09-08T12:10:40;29.60;17.70
439;DHT22;206;48.782;9.252;2023-09-08T12:13:06;29.60;17.40
439;DHT22;206;48.782;9.252;2023-09-08T12:18:03;29.60;17.50
439;DHT22;206;48.782;9.252;2023-09-08T12:20:29;29.50;16.90
439;DHT22;206;48.782;9.252;2023-09-08T12:23:01;29.50;17.10
439;DHT22;206;48.782;9.252;2023-09-08T12:25:27;29.50;16.80
439;DHT22;206;48.782;9.252;2023-09-08T12:28:00;29.60;17.40
439;DHT22;206;48.782;9.252;2023-09-08T12:30:28;29.70;16.80
439;DHT22;206;48.782;9.252;2023-09-08T12:32:59;29.70;16.90
439;DHT22;206;48.782;9.252;2023-09-08T12:35:26;29.70;16.70
439;DHT22;206;48.782;9.252;2023-09-08T12:38:03;29.80;16.50
439;DHT22;206;48.782;9.252;2023-09-08T12:40:33;29.90;16.10
439;DHT22;206;48.782;9.252;2023-09-08T12:42:59;30.00;15.50
439;DHT22;206;48.782;9.252;2023-09-08T12:45:26;30.10;15.30
439;DHT22;206;48.782;9.252;2023-09-08T12:47:52;30.20;15.00
439;DHT22;206;48.782;9.252;2023-09-08T12:50:18;30.30;15.10
439;DHT22;206;48.782;9.252;2023-09-08T12:52:44;30.30;14.90
439;DHT22;206;48.782;9.252;2023-09-08T12:55:10;30.30;15.00
439;DHT22;206;48.782;9.252;2023-09-08T12:57:36;30.30;15.10
439;DHT22;206;48.782;9.252;2023-09-08T13:00:02;30.30;14.80
439;DHT22;206;48.782;9.252;2023-09-08T13:02:28;30.30;14.90
439;DHT22;206;48.782;9.252;2023-09-08T13:04:54;30.30;14.70
439;DHT22;206;48.782;9.252;2023-09-08T13:07:20;30.30;14.50
439;DHT22;206;48.782;9.252;2023-09-08T13:09:46;30.30;14.40
439;DHT22;206;48.782;9.252;2023-09-08T13:12:11;30.30;14.20
439;DHT22;206;48.782;9.252;2023-09-08T13:14:39;30.40;14.10
439;DHT22;206;48.782;9.252;2023-09-08T13:17:04;30.40;13.70
439;DHT22;206;48.782;9.252;2023-09-08T13:19:31;30.40;13.60
439;DHT22;206;48.782;9.252;2023-09-08T13:21:57;30.30;13.30
439;DHT22;206;48.782;9.252;2023-09-08T13:24:23;30.30;12.90
439;DHT22;206;48.782;9.252;2023-09-08T13:26:48;30.30;13.60
439;DHT22;206;48.782;9.252;2023-09-08T13:29:15;30.20;13.40
439;DHT22;206;48.782;9.252;2023-09-08T13:31:40;30.10;13.40
439;DHT22;206;48.782;9.252;2023-09-08T13:34:06;30.20;13.50
439;DHT22;206;48.782;9.252;2023-09-08T13:36:31;30.10;12.80
439;DHT22;206;48.782;9.252;2023-09-08T13:38:57;30.10;12.80
439;DHT22;206;48.782;9.252;2023-09-08T13:41:24;30.10;13.20
439;DHT22;206;48.782;9.252;2023-09-08T13:43:49;30.30;13.40
439;DHT22;206;48.782;9.252;2023-09-08T13:46:15;30.40;12.90
439;DHT22;206;48.782;9.252;2023-09-08T13:48:41;30.40;12.90
439;DHT22;206;48.782;9.252;2023-09-08T13:51:06;30.50;13.00
439;DHT22;206;48.782;9.252;2023-09-08T13:53:32;30.50;12.80
439;DHT22;206;48.782;9.252;2023-09-08T13:55:58;30.40;12.90
439;DHT22;206;48.782;9.252;2023-09-08T13:58:24;30.50;13.00
439;DHT22;206;48.782;9.252;2023-09-08T14:00:49;30.60;13.10
439;DHT22;206;48.782;9.252;2023-09-08T14:03:17;30.60;13.10
439;DHT22;206;48.782;9.252;2023-09-08T14:05:44;30.60;13.10
439;DHT22;206;48.782;9.252;2023-09-08T14:08:09;30.50;13.00
439;DHT22;206;48.782;9.252;2023-09-08T14:10:35;30.50;13.00
439;DHT22;206;48.782;9.252;2023-09-08T14:13:01;30.50;13.00
439;DHT22;206;48.782;9.252;2023-09-08T14:15:26;30.50;13.00
439;DHT22;206;48.782;9.252;2023-09-08T14:17:52;30.50;13.00
439;DHT22;206;48.782;9.252;2023-09-08T14:20:18;30.50;13.00
439;DHT22;206;48.782;9.252;2023-09-08T14:22:44;30.60;13.10
439;DHT22;206;48.782;9.252;2023-09-08T14:25:09;30.60;13.10
439;DHT22;206;48.782;9.252;2023-09-08T14:27:35;30.60;13.10
439;DHT22;206;48.782;9.252;2023-09-08T14:30:03;30.70;13.10
439;DHT22;206;48.782;9.252;2023-09-08T14:32:29;30.70;13.10
439;DHT22;206;48.782;9.252;2023-09-08T14:34:55;30.70;12.30
439;DHT22;206;48.782;9.252;2023-09-08T14:37:21;30.70;12.20
439;DHT22;206;48.782;9.252;2023-09-08T14:39:48;30.60;11.50
439;DHT22;206;48.782;9.252;2023-09-08T14:42:14;30.60;11.60
439;DHT22;206;48.782;9.252;2023-09-08T14:44:41;30.60;12.30
439;DHT22;206;48.782;9.252;2023-09-08T14:47:07;30.60;10.90
439;DHT22;206;48.782;9.252;2023-09-08T14:49:33;30.60;12.40
439;DHT22;206;48.782;9.252;2023-09-08T14:51:58;30.50;12.30
439;DHT22;206;48.782;9.252;2023-09-08T14:54:24;30.60;12.20
439;DHT22;206;48.782;9.252;2023-09-08T14:56:51;30.70;11.50
439;DHT22;206;48.782;9.252;2023-09-08T14:59:17;30.70;10.90
439;DHT22;206;48.782;9.252;2023-09-08T15:01:42;30.70;11.30
439;DHT22;206;48.782;9.252;2023-09-08T15:04:10;30.70;11.70
439;DHT22;206;48.782;9.252;2023-09-08T15:06:36;30.70;11.50
439;DHT22;206;48.782;9.252;2023-09-08T15:09:01;30.80;10.30
439;DHT22;206;48.782;9.252;2023-09-08T15:11:27;30.80;10.80
439;DHT22;206;48.782;9.252;2023-09-08T15:13:53;30.80;10.80
439;DHT22;206;48.782;9.252;2023-09-08T15:16:18;30.70;11.00
439;DHT22;206;48.782;9.252;2023-09-08T15:18:44;30.80;11.20
439;DHT22;206;48.782;9.252;2023-09-08T15:21:09;30.80;11.70
439;DHT22;206;48.782;9.252;2023-09-08T15:23:35;30.70;12.30
439;DHT22;206;48.782;9.252;2023-09-08T15:26:01;30.80;12.00
439;DHT22;206;48.782;9.252;2023-09-08T15:28:27;30.70;11.60
439;DHT22;206;48.782;9.252;2023-09-08T15:30:53;30.70;11.50
439;DHT22;206;48.782;9.252;2023-09-08T15:33:20;30.70;11.90
439;DHT22;206;48.782;9.252;2023-09-08T15:35:47;30.70;11.40
439;DHT22;206;48.782;9.252;2023-09-08T15:38:13;30.70;11.40
439;DHT22;206;48.782;9.252;2023-09-08T15:43:24;30.70;11.10
439;DHT22;206;48.782;9.252;2023-09-08T15:45:50;30.70;11.10
439;DHT22;206;48.782;9.252;2023-09-08T15:48:15;30.70;11.10
439;DHT22;206;48.782;9.252;2023-09-08T15:50:41;30.70;11.00
439;DHT22;206;48.782;9.252;2023-09-08T15:53:06;30.70;10.90
439;DHT22;206;48.782;9.252;2023-09-08T15:55:32;30.60;10.80
439;DHT22;206;48.782;9.252;2023-09-08T15:57:58;30.60;11.30
439;DHT22;206;48.782;9.252;2023-09-08T16:00:23;30.60;11.20
439;DHT22;206;48.782;9.252;2023-09-08T16:02:49;30.60;11.50
439;DHT22;206;48.782;9.252;2023-09-08T16:05:14;30.50;11.50
439;DHT22;206;48.782;9.252;2023-09-08T16:07:41;30.50;11.50
439;DHT22;206;48.782;9.252;2023-09-08T16:10:08;30.50;11.70
439;DHT22;206;48.782;9.252;2023-09-08T16:12:33;30.50;11.70
439;DHT22;206;48.782;9.252;2023-09-08T16:14:59;30.50;11.80
439;DHT22;206;48.782;9.252;2023-09-08T16:17:24;30.50;11.90
439;DHT22;206;48.782;9.252;2023-09-08T16:19:50;30.40;11.60
439;DHT22;206;48.782;9.252;2023-09-08T16:22:16;30.40;11.20
439;DHT22;206;48.782;9.252;2023-09-08T16:24:42;30.40;11.20
439;DHT22;206;48.782;9.252;2023-09-08T16:27:07;30.40;11.90
439;DHT22;206;48.782;9.252;2023-09-08T16:29:33;30.30;12.00
439;DHT22;206;48.782;9.252;2023-09-08T16:31:58;30.30;11.90
439;DHT22;206;48.782;9.252;2023-09-08T16:34:24;30.30;11.90
439;DHT22;206;48.782;9.252;2023-09-08T16:36:49;30.30;11.80
439;DHT22;206;48.782;9.252;2023-09-08T16:39:15;30.30;11.90
439;DHT22;206;48.782;9.252;2023-09-08T16:41:40;30.20;11.60